Time;durP1;ratioP1;P1;durP2;ratioP2;P2;SDS_P1;SDS_P2;PMS_P1;PMS_P2;Temp;Humidity;BMP_temperature;BMP_pressure;BME280_temperature;BME280_humidity;BME280_pressure;Samples;Min_cycle;Max_cycle;Signal;HPM_P1;HPM_P2
2022/04/27 00:00:15;;;;;;;2.28;2.00;;;12.60;99.90;;;;;;5063946;28;20020;-79
2022/04/27 00:02:41;;;;;;;2.92;2.63;;;12.60;99.90;;;;;;5070280;28;20108;-79
2022/04/27 00:05:08;;;;;;;2.85;2.42;;;12.50;99.90;;;;;;5080666;28;20044;-79
2022/04/27 00:07:34;;;;;;;3.00;2.10;;;12.30;99.90;;;;;;5069837;28;20024;-79
2022/04/27 00:09:59;;;;;;;3.05;2.75;;;12.50;99.90;;;;;;5075358;28;20032;-79
2022/04/27 00:12:25;;;;;;;2.75;2.45;;;12.30;99.90;;;;;;5072345;28;20020;-79
2022/04/27 00:14:51;;;;;;;2.75;2.00;;;12.20;99.90;;;;;;5059699;28;20419;-79
2022/04/27 00:17:17;;;;;;;2.03;1.90;;;12.20;99.90;;;;;;5069174;28;20013;-79
2022/04/27 00:19:44;;;;;;;3.00;2.58;;;12.20;99.90;;;;;;5070004;28;20513;-79
2022/04/27 00:22:11;;;;;;;2.35;2.15;;;12.20;99.90;;;;;;5063685;28;20554;-79
2022/04/27 00:24:38;;;;;;;2.72;2.08;;;12.30;99.90;;;;;;5057604;28;20110;-79
2022/04/27 00:27:04;;;;;;;3.60;2.60;;;12.20;99.90;;;;;;5071289;28;20113;-79
2022/04/27 00:29:30;;;;;;;3.33;2.20;;;12.40;99.90;;;;;;5074100;28;20021;-79
2022/04/27 00:31:56;;;;;;;2.50;2.30;;;12.40;99.90;;;;;;5082652;28;20516;-79
2022/04/27 00:34:22;;;;;;;2.53;2.33;;;12.20;99.90;;;;;;5071948;28;20538;-79
2022/04/27 00:36:47;;;;;;;2.45;2.25;;;12.30;99.90;;;;;;5070171;28;20521;-79
2022/04/27 00:39:13;;;;;;;2.33;2.10;;;12.20;99.90;;;;;;5064492;28;20451;-79
2022/04/27 00:41:39;;;;;;;2.90;2.47;;;12.30;99.90;;;;;;5069424;28;20099;-79
2022/04/27 00:44:05;;;;;;;2.53;2.25;;;12.10;99.90;;;;;;5075372;28;20032;-79
2022/04/27 00:46:30;;;;;;;2.65;2.20;;;12.10;99.90;;;;;;5074881;28;20382;-79
2022/04/27 00:48:56;;;;;;;2.75;2.30;;;12.00;99.90;;;;;;5073435;28;20024;-78
2022/04/27 00:51:24;;;;;;;2.17;2.00;;;12.00;99.90;;;;;;5080750;28;20027;-79
2022/04/27 00:53:50;;;;;;;3.83;2.38;;;12.00;99.90;;;;;;5055273;28;20025;-79
2022/04/27 00:56:18;;;;;;;3.20;2.65;;;12.00;99.90;;;;;;5068049;28;20534;-79
2022/04/27 00:58:45;;;;;;;1.85;1.70;;;12.00;99.90;;;;;;5075613;28;20033;-79
2022/04/27 01:01:11;;;;;;;3.90;2.25;;;12.10;99.90;;;;;;5073959;28;20073;-78
2022/04/27 01:03:36;;;;;;;2.40;2.10;;;12.00;99.90;;;;;;5069378;28;20099;-78
2022/04/27 01:06:04;;;;;;;4.28;2.50;;;12.10;99.90;;;;;;5055493;28;20060;-78
2022/04/27 01:08:30;;;;;;;3.00;2.22;;;12.10;99.90;;;;;;5075397;28;20075;-78
2022/04/27 01:10:59;;;;;;;3.17;2.60;;;12.00;99.90;;;;;;5087378;28;20498;-78
2022/04/27 01:13:27;;;;;;;2.25;1.85;;;12.10;99.90;;;;;;5074187;28;20112;-79
2022/04/27 01:15:53;;;;;;;2.75;2.17;;;12.10;99.90;;;;;;5063692;28;20020;-79
2022/04/27 01:18:19;;;;;;;2.92;2.40;;;12.10;99.90;;;;;;5063952;28;20564;-79
2022/04/27 01:20:45;;;;;;;2.45;2.20;;;12.10;99.90;;;;;;5066289;28;20029;-79
2022/04/27 01:23:15;;;;;;;3.10;2.33;;;11.90;99.90;;;;;;5073978;28;20043;-79
2022/04/27 01:25:59;;;;;;;3.03;2.15;;;11.90;99.90;;;;;;5073814;28;20575;-79
2022/04/27 01:28:29;;;;;;;2.63;2.08;;;11.60;99.90;;;;;;5074161;28;20040;-79
2022/04/27 01:31:03;;;;;;;3.45;2.20;;;11.60;99.90;;;;;;5077012;28;20577;-79
2022/04/27 01:33:30;;;;;;;2.28;1.77;;;11.70;99.90;;;;;;5070746;28;20034;-79
2022/04/27 01:35:58;;;;;;;3.20;2.00;;;11.70;99.90;;;;;;5059781;28;20032;-79
2022/04/27 01:38:24;;;;;;;2.80;2.20;;;11.80;99.90;;;;;;5060828;28;20100;-79
2022/04/27 01:40:54;;;;;;;2.90;2.38;;;11.70;99.90;;;;;;5079581;28;20040;-79
2022/04/27 01:43:24;;;;;;;2.83;1.90;;;11.70;99.90;;;;;;5077671;28;20024;-79
2022/04/27 01:45:53;;;;;;;3.80;2.45;;;11.70;99.90;;;;;;5067260;28;20086;-79
2022/04/27 01:48:19;;;;;;;4.00;2.25;;;11.80;99.90;;;;;;5073438;28;20025;-78
2022/04/27 01:50:45;;;;;;;2.72;1.98;;;11.90;99.90;;;;;;5080206;28;20581;-78
2022/04/27 01:55:55;;;;;;;2.10;1.92;;;11.80;99.90;;;;;;5067907;28;20538;-78
2022/04/27 01:58:22;;;;;;;3.15;2.22;;;11.60;99.90;;;;;;5071892;28;20032;-79
2022/04/27 02:00:48;;;;;;;5.25;2.30;;;11.60;99.90;;;;;;5065501;28;20024;-78
2022/04/27 02:03:18;;;;;;;3.30;2.38;;;11.50;99.90;;;;;;5065948;28;20070;-78
2022/04/27 02:05:44;;;;;;;3.38;2.20;;;11.50;99.90;;;;;;5070214;28;20078;-78
2022/04/27 02:08:10;;;;;;;4.97;2.47;;;11.40;99.90;;;;;;5082659;28;20016;-78
2022/04/27 02:10:36;;;;;;;2.47;2.28;;;11.40;99.90;;;;;;5061511;28;20039;-78
2022/04/27 02:13:06;;;;;;;3.20;2.22;;;11.50;99.90;;;;;;5068051;28;20110;-78
2022/04/27 02:15:33;;;;;;;3.35;2.28;;;11.40;99.90;;;;;;5054604;28;20060;-79
2022/04/27 02:17:59;;;;;;;2.50;2.20;;;11.40;99.90;;;;;;5060381;28;20023;-79
2022/04/27 02:20:25;;;;;;;2.80;2.33;;;11.50;99.90;;;;;;5071998;28;20029;-79
2022/04/27 02:22:51;;;;;;;2.13;1.92;;;11.20;99.90;;;;;;5079282;28;20444;-79
2022/04/27 02:25:18;;;;;;;2.95;2.20;;;11.20;99.90;;;;;;5070643;28;20028;-79
2022/04/27 02:27:44;;;;;;;2.45;2.00;;;11.00;99.90;;;;;;5075064;28;20486;-79
2022/04/27 02:30:11;;;;;;;3.15;2.10;;;11.10;99.90;;;;;;5080100;28;20067;-79
2022/04/27 02:32:37;;;;;;;2.60;2.15;;;11.10;99.90;;;;;;5057681;28;20021;-78
2022/04/27 02:35:04;;;;;;;2.53;2.33;;;11.00;99.90;;;;;;5071289;28;20047;-79
2022/04/27 02:37:30;;;;;;;2.67;2.22;;;11.00;99.90;;;;;;5073038;28;20020;-78
2022/04/27 02:39:57;;;;;;;2.40;2.20;;;10.90;99.90;;;;;;5065092;28;20153;-79
2022/04/27 02:42:23;;;;;;;2.55;2.10;;;10.90;99.90;;;;;;5063728;28;20035;-79
2022/04/27 02:44:49;;;;;;;2.28;2.08;;;10.90;99.90;;;;;;5075306;28;20043;-79
2022/04/27 02:47:15;;;;;;;4.18;2.40;;;11.00;99.90;;;;;;5084481;28;20036;-78
2022/04/27 02:52:25;;;;;;;2.90;2.33;;;11.00;99.90;;;;;;5072642;28;20403;-78
2022/04/27 02:54:51;;;;;;;3.00;2.10;;;11.00;99.90;;;;;;5071287;28;20018;-78
2022/04/27 02:57:17;;;;;;;2.42;1.92;;;11.10;99.90;;;;;;5069331;28;20036;-79
2022/04/27 02:59:44;;;;;;;2.75;2.45;;;11.10;99.90;;;;;;5073062;28;20038;-79
2022/04/27 03:02:10;;;;;;;6.47;2.80;;;11.10;99.90;;;;;;5080696;28;20029;-79
2022/04/27 03:04:36;;;;;;;2.88;2.30;;;11.10;99.90;;;;;;5078302;28;20034;-79
2022/04/27 03:07:02;;;;;;;3.65;2.53;;;11.10;99.90;;;;;;5078312;28;20030;-79
2022/04/27 03:09:29;;;;;;;2.95;2.55;;;11.20;99.90;;;;;;5083874;28;20086;-79
2022/04/27 03:11:55;;;;;;;2.42;2.22;;;11.00;99.90;;;;;;5059594;28;20016;-79
2022/04/27 03:14:21;;;;;;;2.60;2.22;;;10.90;99.90;;;;;;5068700;28;20120;-79
2022/04/27 03:16:47;;;;;;;3.22;2.40;;;10.80;99.90;;;;;;5078546;28;20582;-79
2022/04/27 03:19:13;;;;;;;2.80;2.50;;;10.90;99.90;;;;;;5075814;28;20519;-79
2022/04/27 03:21:39;;;;;;;4.10;2.60;;;10.90;99.90;;;;;;5064161;28;20021;-79
2022/04/27 03:24:05;;;;;;;3.10;2.80;;;10.90;99.90;;;;;;5068882;28;20029;-79
2022/04/27 03:26:31;;;;;;;2.58;2.13;;;11.00;99.90;;;;;;5080594;28;20024;-79
2022/04/27 03:28:58;;;;;;;2.65;2.40;;;11.00;99.90;;;;;;5090532;28;20059;-79
2022/04/27 03:31:23;;;;;;;2.63;2.30;;;10.90;99.90;;;;;;5077546;28;20025;-79
2022/04/27 03:33:49;;;;;;;4.05;2.75;;;10.90;99.90;;;;;;5070002;28;20024;-79
2022/04/27 03:36:15;;;;;;;4.32;2.80;;;10.90;99.90;;;;;;5079893;28;20028;-79
2022/04/27 03:38:43;;;;;;;3.40;2.80;;;10.80;99.90;;;;;;5084319;28;20029;-79
2022/04/27 03:41:09;;;;;;;2.70;2.28;;;10.80;99.90;;;;;;5086904;28;20031;-79
2022/04/27 03:43:34;;;;;;;3.30;2.80;;;10.80;99.90;;;;;;5066653;28;20029;-79
2022/04/27 03:46:00;;;;;;;3.40;2.67;;;10.80;99.90;;;;;;5076736;28;20040;-79
2022/04/27 03:48:26;;;;;;;2.65;2.30;;;10.80;99.90;;;;;;5076731;28;20531;-79
2022/04/27 03:50:52;;;;;;;3.17;2.50;;;10.70;99.90;;;;;;5075125;28;20174;-79
2022/04/27 03:53:18;;;;;;;2.83;2.45;;;10.80;99.90;;;;;;5093718;28;20024;-79
2022/04/27 03:55:44;;;;;;;2.95;2.50;;;10.80;99.90;;;;;;5087463;28;20885;-79
2022/04/27 03:58:10;;;;;;;4.10;2.20;;;10.80;99.90;;;;;;5084101;28;20027;-79
2022/04/27 04:00:36;;;;;;;3.45;2.30;;;10.90;99.90;;;;;;5079315;28;20036;-79
2022/04/27 04:03:03;;;;;;;2.30;2.10;;;10.90;99.90;;;;;;5086040;28;20073;-78
2022/04/27 04:05:29;;;;;;;4.28;2.78;;;10.90;99.90;;;;;;5082210;28;20489;-79
2022/04/27 04:07:56;;;;;;;3.33;2.42;;;10.90;99.90;;;;;;5065695;28;20025;-78
2022/04/27 04:10:23;;;;;;;2.25;2.05;;;10.90;99.90;;;;;;5077795;28;20040;-78
2022/04/27 04:12:48;;;;;;;3.95;2.70;;;10.70;99.90;;;;;;5079246;28;20030;-78
2022/04/27 04:15:15;;;;;;;4.40;2.40;;;10.80;99.90;;;;;;5080715;28;20409;-79
2022/04/27 04:17:44;;;;;;;3.17;2.38;;;10.80;99.90;;;;;;5081558;28;20051;-79
2022/04/27 04:20:14;;;;;;;2.83;2.53;;;10.70;99.90;;;;;;5085605;28;20529;-78
2022/04/27 04:22:41;;;;;;;3.55;2.22;;;10.80;99.90;;;;;;5086051;28;20114;-79
2022/04/27 04:30:36;;;;;;;4.65;2.90;;;10.70;99.90;;;;;;5068182;28;20067;-79
2022/04/27 04:33:02;;;;;;;4.00;2.50;;;10.80;99.90;;;;;;5067900;28;20505;-79
2022/04/27 04:35:28;;;;;;;3.08;2.42;;;10.80;99.90;;;;;;5092566;28;20028;-78
2022/04/27 04:37:54;;;;;;;4.10;2.65;;;10.70;99.90;;;;;;5084800;28;20510;-79
2022/04/27 04:40:20;;;;;;;2.92;2.58;;;10.70;99.90;;;;;;5083322;28;20038;-79
2022/04/27 04:42:46;;;;;;;3.40;2.70;;;10.70;99.90;;;;;;5076639;28;20050;-79
2022/04/27 04:45:12;;;;;;;3.25;2.95;;;10.80;99.90;;;;;;5061551;28;20160;-79
2022/04/27 04:47:42;;;;;;;3.60;2.80;;;10.80;99.90;;;;;;5064271;28;20036;-79
2022/04/27 04:50:11;;;;;;;2.65;2.30;;;10.80;99.90;;;;;;5082212;28;20035;-79
2022/04/27 04:52:38;;;;;;;2.70;2.50;;;10.80;99.90;;;;;;5082956;28;20024;-82
2022/04/27 04:55:04;;;;;;;3.17;2.88;;;10.80;99.90;;;;;;5082042;28;20081;-76
2022/04/27 04:57:30;;;;;;;3.95;2.70;;;10.70;99.90;;;;;;5074157;28;20086;-75
2022/04/27 04:59:56;;;;;;;3.10;2.80;;;10.60;99.90;;;;;;5083095;28;20032;-81
2022/04/27 05:02:22;;;;;;;3.28;2.97;;;10.60;99.90;;;;;;5087264;28;20032;-81
2022/04/27 05:04:49;;;;;;;2.67;2.38;;;10.60;99.90;;;;;;5077257;28;20092;-81
2022/04/27 05:07:18;;;;;;;2.55;2.35;;;10.70;99.90;;;;;;5071053;28;20028;-81
2022/04/27 05:09:44;;;;;;;4.65;3.20;;;10.70;99.90;;;;;;5066151;28;20016;-81
2022/04/27 05:12:10;;;;;;;4.50;3.20;;;10.70;99.90;;;;;;5071050;28;20022;-81
2022/04/27 05:14:36;;;;;;;5.50;2.95;;;10.70;99.90;;;;;;5081757;28;20490;-81
2022/04/27 05:17:02;;;;;;;3.08;2.45;;;10.80;99.90;;;;;;5080669;28;20020;-81
2022/04/27 05:19:27;;;;;;;3.80;2.97;;;10.90;99.90;;;;;;5083954;28;20024;-80
2022/04/27 05:21:53;;;;;;;3.80;2.70;;;11.00;99.90;;;;;;5080923;28;20024;-79
2022/04/27 05:24:19;;;;;;;3.15;2.85;;;11.00;99.90;;;;;;5081665;28;20107;-80
2022/04/27 05:26:45;;;;;;;4.65;2.80;;;11.00;99.90;;;;;;5074826;28;20060;-79
2022/04/27 05:31:55;;;;;;;2.63;2.42;;;11.20;99.90;;;;;;5076132;28;20517;-80
2022/04/27 05:34:21;;;;;;;2.72;2.53;;;11.10;99.90;;;;;;5076996;28;20020;-80
2022/04/27 05:36:47;;;;;;;3.13;2.75;;;11.30;99.90;;;;;;5071540;28;20062;-80
2022/04/27 05:39:14;;;;;;;3.13;2.70;;;11.30;99.90;;;;;;5083153;28;20016;-79
2022/04/27 05:41:41;;;;;;;3.33;2.95;;;11.30;99.90;;;;;;5086226;28;20029;-79
2022/04/27 05:44:09;;;;;;;2.90;2.58;;;11.40;99.90;;;;;;5065893;28;20098;-79
2022/04/27 05:46:36;;;;;;;4.70;2.92;;;11.40;99.90;;;;;;5073809;28;20688;-79
2022/04/27 05:49:02;;;;;;;3.50;2.80;;;11.50;99.90;;;;;;5076433;28;20031;-79
2022/04/27 05:51:27;;;;;;;6.10;3.60;;;11.40;99.90;;;;;;5073825;28;20008;-79
2022/04/27 05:53:53;;;;;;;3.53;2.78;;;11.50;99.90;;;;;;5081329;28;20498;-79
2022/04/27 05:56:19;;;;;;;3.45;2.72;;;11.50;99.90;;;;;;5078759;28;20185;-79
2022/04/27 05:58:45;;;;;;;5.05;3.17;;;11.50;99.90;;;;;;5086004;28;20039;-79
2022/04/27 06:01:11;;;;;;;4.30;3.00;;;11.50;99.90;;;;;;5079132;28;20020;-79
2022/04/27 06:03:38;;;;;;;3.28;2.67;;;11.60;99.90;;;;;;5069878;28;20032;-79
2022/04/27 06:06:03;;;;;;;3.38;3.08;;;11.70;99.90;;;;;;5088923;28;20027;-79
2022/04/27 06:08:29;;;;;;;4.20;2.65;;;11.70;99.90;;;;;;5079743;28;20032;-79
2022/04/27 06:10:55;;;;;;;8.18;3.53;;;11.80;99.90;;;;;;5072829;28;20021;-79
2022/04/27 06:13:21;;;;;;;2.58;2.35;;;11.90;99.90;;;;;;5073498;28;20517;-79
2022/04/27 06:15:47;;;;;;;3.22;2.80;;;12.30;99.90;;;;;;5076713;28;20023;-79
2022/04/27 06:18:12;;;;;;;3.95;2.78;;;13.70;99.90;;;;;;5081408;28;20024;-79
2022/04/27 06:20:38;;;;;;;3.30;2.85;;;15.30;99.90;;;;;;5085446;28;20017;-79
2022/04/27 06:23:04;;;;;;;5.80;3.20;;;16.30;99.90;;;;;;5081961;28;20144;-79
2022/04/27 06:25:32;;;;;;;3.83;2.90;;;16.60;99.90;;;;;;5078393;28;20035;-79
2022/04/27 06:27:58;;;;;;;3.25;2.85;;;16.40;99.90;;;;;;5071458;28;20024;-79
2022/04/27 06:30:25;;;;;;;3.22;2.50;;;16.70;99.90;;;;;;5073435;28;20025;-79
2022/04/27 06:32:51;;;;;;;3.53;2.90;;;16.80;99.90;;;;;;5069807;28;20021;-79
2022/04/27 06:35:17;;;;;;;2.85;2.53;;;17.40;99.90;;;;;;5085548;28;20016;-79
2022/04/27 06:37:43;;;;;;;3.67;3.00;;;17.40;99.90;;;;;;5081857;28;20055;-79
2022/04/27 06:40:10;;;;;;;3.30;2.50;;;17.60;99.90;;;;;;5068910;28;20029;-79
2022/04/27 06:42:36;;;;;;;3.40;2.95;;;17.50;99.90;;;;;;5064295;28;20067;-79
2022/04/27 06:45:05;;;;;;;3.25;2.45;;;17.70;99.90;;;;;;5069615;28;20036;-81
2022/04/27 06:47:31;;;;;;;4.60;3.28;;;17.80;99.50;;;;;;5079719;28;20028;-79
2022/04/27 06:49:56;;;;;;;3.53;2.90;;;17.20;99.90;;;;;;5081467;28;20044;-78
2022/04/27 06:52:22;;;;;;;4.47;3.10;;;17.40;99.90;;;;;;5073466;28;20036;-79
2022/04/27 06:54:48;;;;;;;5.38;3.65;;;17.40;99.90;;;;;;5067299;28;20482;-78
2022/04/27 06:57:14;;;;;;;4.75;3.05;;;17.20;99.90;;;;;;5080335;28;20048;-79
2022/04/27 06:59:39;;;;;;;4.20;3.40;;;17.10;99.40;;;;;;5081171;28;20045;-79
2022/04/27 07:02:05;;;;;;;3.67;3.25;;;17.20;99.90;;;;;;5073058;28;20037;-79
2022/04/27 07:04:35;;;;;;;4.20;3.15;;;17.00;98.50;;;;;;5076204;28;20029;-79
2022/04/27 07:07:02;;;;;;;6.32;3.45;;;17.30;99.90;;;;;;5072663;28;20111;-79
2022/04/27 07:09:29;;;;;;;3.67;3.20;;;17.40;99.80;;;;;;5082941;28;20111;-79
2022/04/27 07:11:55;;;;;;;4.45;3.30;;;17.60;97.90;;;;;;5078133;28;20052;-79
2022/04/27 07:14:21;;;;;;;4.78;3.72;;;17.80;97.20;;;;;;5061684;28;20506;-79
2022/04/27 07:16:47;;;;;;;7.35;3.50;;;17.70;96.20;;;;;;5079473;28;20031;-79
2022/04/27 07:19:13;;;;;;;3.65;3.05;;;18.10;98.00;;;;;;5070328;28;20025;-79
2022/04/27 07:21:39;;;;;;;6.40;3.40;;;18.10;97.20;;;;;;5061582;28;20028;-79
2022/04/27 07:24:05;;;;;;;4.25;3.20;;;18.40;97.00;;;;;;5061843;28;20050;-79
2022/04/27 07:26:31;;;;;;;3.75;3.45;;;18.30;95.20;;;;;;5090619;28;20031;-79
2022/04/27 07:28:57;;;;;;;4.85;3.28;;;18.70;94.70;;;;;;5071424;28;20036;-79
2022/04/27 07:31:23;;;;;;;4.63;3.35;;;18.90;96.20;;;;;;5081775;28;20036;-79
2022/04/27 07:33:49;;;;;;;4.07;3.10;;;19.10;94.50;;;;;;5069780;28;20494;-79
2022/04/27 07:36:15;;;;;;;4.55;2.97;;;19.10;93.80;;;;;;5070155;28;20036;-79
2022/04/27 07:38:41;;;;;;;2.78;2.58;;;19.40;95.70;;;;;;5077063;28;20032;-79
2022/04/27 07:41:07;;;;;;;3.42;3.08;;;19.90;94.10;;;;;;5083090;28;20028;-79
2022/04/27 07:43:33;;;;;;;3.42;2.42;;;19.70;93.80;;;;;;5066753;28;20120;-79
2022/04/27 07:46:00;;;;;;;5.53;3.00;;;19.60;93.10;;;;;;5063182;28;20095;-78
2022/04/27 07:48:32;;;;;;;3.20;2.80;;;20.10;92.20;;;;;;5065106;28;20502;-79
2022/04/27 07:51:01;;;;;;;3.42;3.03;;;20.20;91.50;;;;;;5070467;28;20021;-80
2022/04/27 07:53:27;;;;;;;5.72;3.35;;;20.10;92.70;;;;;;5064234;28;20024;-79
2022/04/27 07:55:53;;;;;;;3.60;3.30;;;20.30;93.10;;;;;;5069769;28;20536;-79
2022/04/27 07:58:19;;;;;;;3.42;3.13;;;20.20;91.90;;;;;;5060250;28;20021;-79
2022/04/27 08:00:44;;;;;;;4.55;3.33;;;20.10;91.50;;;;;;5066091;28;20021;-79
2022/04/27 08:03:10;;;;;;;3.00;2.70;;;20.20;91.20;;;;;;5064345;28;20028;-80
2022/04/27 08:05:36;;;;;;;2.70;2.45;;;20.50;91.80;;;;;;5069468;28;20021;-79
2022/04/27 08:08:01;;;;;;;3.08;2.78;;;20.90;91.80;;;;;;5079133;28;20116;-79
2022/04/27 08:10:27;;;;;;;4.25;2.90;;;21.20;91.70;;;;;;5076807;28;20396;-80
2022/04/27 08:12:53;;;;;;;3.55;3.25;;;21.20;90.80;;;;;;5061971;28;20391;-80
2022/04/27 08:15:21;;;;;;;4.20;2.95;;;21.20;89.10;;;;;;5075838;28;20021;-80
2022/04/27 08:17:54;;;;;;;4.63;2.75;;;21.10;91.10;;;;;;5079862;28;20083;-80
2022/04/27 08:23:10;;;;;;;2.97;2.40;;;21.10;90.70;;;;;;5082703;28;20104;-79
2022/04/27 08:25:37;;;;;;;3.92;3.25;;;20.90;90.40;;;;;;5077182;28;20116;-79
2022/04/27 08:28:06;;;;;;;4.70;3.00;;;20.90;91.40;;;;;;5060545;28;20254;-79
2022/04/27 08:30:33;;;;;;;12.68;7.00;;;21.00;90.50;;;;;;5069331;28;20205;-79
2022/04/27 08:33:00;;;;;;;8.45;5.75;;;20.90;91.60;;;;;;5065432;28;20024;-79
2022/04/27 08:35:27;;;;;;;6.28;4.03;;;20.50;90.10;;;;;;5075271;28;20021;-79
2022/04/27 08:37:53;;;;;;;8.57;4.35;;;20.10;90.80;;;;;;5084770;28;20028;-79
2022/04/27 08:40:19;;;;;;;12.45;5.47;;;20.00;90.70;;;;;;5073169;28;20108;-79
2022/04/27 08:42:45;;;;;;;5.35;3.72;;;19.80;91.70;;;;;;5058981;28;20020;-79
2022/04/27 08:45:11;;;;;;;8.63;3.88;;;20.00;90.10;;;;;;5062336;28;20481;-79
2022/04/27 08:47:36;;;;;;;4.72;3.05;;;20.40;91.40;;;;;;5067576;28;20025;-79
2022/04/27 08:50:20;;;;;;;6.10;3.17;;;20.80;91.60;;;;;;5065273;28;20564;-79
2022/04/27 08:52:46;;;;;;;7.20;3.63;;;20.50;87.10;;;;;;5073018;28;20024;-79
2022/04/27 08:55:13;;;;;;;5.97;3.60;;;20.50;89.00;;;;;;5072906;28;20222;-79
2022/04/27 08:57:39;;;;;;;3.22;2.88;;;20.50;90.20;;;;;;5072885;28;20101;-78
2022/04/27 09:00:07;;;;;;;4.15;2.90;;;20.40;90.10;;;;;;5057399;28;20028;-78
2022/04/27 09:02:34;;;;;;;4.70;2.88;;;20.90;91.20;;;;;;5056994;28;20021;-78
2022/04/27 09:05:20;;;;;;;2.92;2.60;;;21.30;89.90;;;;;;5072330;28;20043;-78
2022/04/27 09:07:51;;;;;;;7.00;3.60;;;21.50;91.10;;;;;;5076418;28;20514;-79
2022/04/27 09:10:22;;;;;;;6.43;3.13;;;21.90;89.40;;;;;;5067710;28;20115;-79
2022/04/27 09:12:56;;;;;;;5.10;2.78;;;21.90;86.70;;;;;;5068880;28;20090;-79
2022/04/27 09:15:26;;;;;;;7.13;3.03;;;21.80;86.80;;;;;;5075113;28;20016;-78
2022/04/27 09:20:55;;;;;;;3.92;3.20;;;21.80;90.50;;;;;;5069758;28;20050;-79
2022/04/27 09:23:25;;;;;;;5.45;3.08;;;21.80;88.30;;;;;;5086996;28;20043;-79
2022/04/27 09:25:55;;;;;;;4.32;2.75;;;21.80;87.40;;;;;;5071129;28;20033;-79
2022/04/27 09:28:26;;;;;;;2.63;2.42;;;21.80;90.50;;;;;;5071818;28;20119;-80
2022/04/27 09:30:52;;;;;;;3.67;2.75;;;21.40;90.30;;;;;;5063673;28;20094;-79
2022/04/27 09:33:30;;;;;;;3.05;2.50;;;21.10;89.10;;;;;;5075330;28;20028;-79
2022/04/27 09:35:56;;;;;;;3.40;2.33;;;21.60;88.20;;;;;;5077732;28;20017;-79
2022/04/27 09:38:22;;;;;;;4.30;2.75;;;21.60;90.00;;;;;;5059186;28;20029;-78
2022/04/27 09:40:50;;;;;;;3.83;2.78;;;22.20;86.90;;;;;;5071897;28;20402;-77
2022/04/27 09:43:16;;;;;;;3.53;3.00;;;22.00;87.60;;;;;;5075026;28;20036;-79
2022/04/27 09:45:43;;;;;;;3.28;2.40;;;22.20;86.70;;;;;;5062620;28;20028;-78
2022/04/27 09:48:17;;;;;;;2.15;1.95;;;21.70;86.50;;;;;;5066671;28;20037;-79
2022/04/27 09:50:58;;;;;;;2.47;2.28;;;21.80;86.80;;;;;;5069545;28;20028;-78
2022/04/27 09:53:24;;;;;;;4.82;2.72;;;21.70;86.50;;;;;;5079670;28;20021;-79
2022/04/27 09:55:53;;;;;;;2.67;2.35;;;21.90;88.80;;;;;;5069863;28;20630;-79
2022/04/27 09:58:19;;;;;;;3.08;2.60;;;21.80;90.10;;;;;;5071799;28;20102;-79
2022/04/27 10:00:48;;;;;;;3.13;2.30;;;21.60;89.50;;;;;;5064987;28;20074;-79
2022/04/27 10:03:15;;;;;;;4.68;2.67;;;21.60;87.20;;;;;;5063804;28;20028;-79
2022/04/27 10:05:42;;;;;;;4.05;2.20;;;21.50;89.20;;;;;;5073485;28;20024;-78
2022/04/27 10:08:09;;;;;;;2.67;2.28;;;21.40;90.80;;;;;;5078680;28;20048;-78
2022/04/27 10:10:44;;;;;;;3.63;2.63;;;21.50;88.70;;;;;;5075669;28;20043;-78
2022/04/27 10:13:12;;;;;;;2.75;2.25;;;21.40;90.70;;;;;;5070435;28;20038;-79
2022/04/27 10:15:48;;;;;;;3.00;2.20;;;21.50;90.50;;;;;;5077679;28;20103;-78
2022/04/27 10:18:18;;;;;;;2.40;2.20;;;21.70;90.80;;;;;;5058330;28;20215;-79
2022/04/27 10:20:45;;;;;;;2.45;2.25;;;21.50;90.00;;;;;;5068237;28;20024;-79
2022/04/27 10:23:22;;;;;;;2.90;2.30;;;21.40;89.90;;;;;;5086533;28;20028;-79
2022/04/27 10:26:12;;;;;;;3.08;2.70;;;21.30;90.10;;;;;;5073128;28;20066;-79
2022/04/27 10:28:44;;;;;;;2.30;2.10;;;21.40;90.20;;;;;;5071925;28;20028;-79
2022/04/27 10:31:10;;;;;;;3.08;2.28;;;21.20;90.30;;;;;;5072582;28;20040;-79
2022/04/27 10:34:10;;;;;;;2.78;2.30;;;21.10;88.40;;;;;;5071880;28;20031;-79
2022/04/27 10:36:40;;;;;;;2.13;1.92;;;21.00;90.40;;;;;;5060657;28;20020;-79
2022/04/27 10:39:12;;;;;;;2.00;1.90;;;20.90;90.70;;;;;;5055148;28;20031;-79
2022/04/27 10:41:42;;;;;;;2.38;2.17;;;20.80;90.60;;;;;;5064876;28;20107;-79
2022/04/27 10:44:08;;;;;;;3.53;2.70;;;20.90;90.60;;;;;;5070829;28;20100;-79
2022/04/27 10:46:39;;;;;;;3.60;2.55;;;21.00;90.50;;;;;;5072309;28;20115;-79
2022/04/27 10:49:25;;;;;;;3.65;2.58;;;21.00;90.40;;;;;;5064478;28;20511;-79
2022/04/27 10:52:08;;;;;;;2.70;2.25;;;21.40;90.30;;;;;;5073393;28;20035;-79
2022/04/27 10:54:39;;;;;;;2.78;2.20;;;21.30;89.20;;;;;;5075683;28;20032;-79
2022/04/27 10:57:16;;;;;;;4.63;2.13;;;21.30;90.00;;;;;;5065871;28;20044;-79
2022/04/27 11:00:01;;;;;;;3.08;2.45;;;21.20;91.10;;;;;;5060068;28;20035;-79
2022/04/27 11:02:41;;;;;;;3.47;2.60;;;20.90;90.30;;;;;;5070987;28;20178;-79
2022/04/27 11:05:10;;;;;;;2.58;2.20;;;21.00;90.30;;;;;;5079654;28;20024;-79
2022/04/27 11:07:58;;;;;;;2.55;2.22;;;21.00;90.60;;;;;;5074062;28;20445;-78
2022/04/27 11:10:25;;;;;;;2.78;2.47;;;21.00;92.10;;;;;;5071929;28;20043;-78
2022/04/27 11:12:52;;;;;;;2.60;2.40;;;20.70;90.60;;;;;;5074337;28;20068;-78
2022/04/27 11:15:22;;;;;;;2.40;1.92;;;20.50;90.80;;;;;;5078955;28;20050;-78
2022/04/27 11:18:01;;;;;;;3.10;2.15;;;20.50;90.60;;;;;;5059627;28;20029;-78
2022/04/27 11:20:38;;;;;;;2.92;2.20;;;20.50;91.60;;;;;;5072269;28;20028;-79
2022/04/27 11:23:09;;;;;;;2.67;2.00;;;20.30;93.20;;;;;;5066244;28;20036;-79
2022/04/27 11:25:37;;;;;;;2.05;1.95;;;20.40;93.30;;;;;;5069785;28;20028;-79
2022/04/27 11:28:06;;;;;;;4.20;1.83;;;20.50;93.00;;;;;;5060353;28;20052;-79
2022/04/27 11:30:33;;;;;;;2.92;2.17;;;20.60;93.10;;;;;;5072790;28;20095;-79
2022/04/27 11:33:01;;;;;;;2.30;2.10;;;21.10;91.10;;;;;;5076892;28;20051;-79
2022/04/27 11:35:42;;;;;;;2.60;2.22;;;21.80;91.70;;;;;;5064481;28;20030;-79
2022/04/27 11:38:08;;;;;;;3.13;2.30;;;22.10;90.90;;;;;;5064506;28;20033;-79
2022/04/27 11:40:37;;;;;;;2.80;2.17;;;22.60;90.70;;;;;;5077181;28;20543;-79
2022/04/27 11:43:06;;;;;;;2.70;2.47;;;22.70;90.00;;;;;;5058618;28;20028;-79
2022/04/27 11:45:33;;;;;;;2.40;2.17;;;23.00;89.40;;;;;;5060225;28;20048;-79
2022/04/27 11:48:03;;;;;;;1.95;1.80;;;22.90;90.10;;;;;;5072887;28;20077;-79
2022/04/27 11:50:34;;;;;;;3.10;2.33;;;22.90;90.40;;;;;;5067756;28;20529;-79
2022/04/27 11:53:02;;;;;;;2.67;2.30;;;23.10;91.50;;;;;;5089082;28;20318;-79
2022/04/27 11:55:28;;;;;;;3.75;2.60;;;22.90;90.10;;;;;;5076864;28;20035;-79
2022/04/27 11:57:54;;;;;;;2.10;1.90;;;22.70;90.10;;;;;;5075658;28;20028;-79
2022/04/27 12:00:21;;;;;;;3.28;2.38;;;22.50;90.40;;;;;;5057710;28;20029;-79
2022/04/27 12:02:47;;;;;;;3.78;2.33;;;21.90;89.30;;;;;;5069708;28;20033;-79
2022/04/27 12:05:16;;;;;;;3.05;2.42;;;21.80;89.10;;;;;;5083871;28;20758;-79
2022/04/27 12:07:48;;;;;;;3.17;2.60;;;21.40;90.70;;;;;;5077773;28;20529;-79
2022/04/27 12:10:14;;;;;;;4.82;2.80;;;21.00;90.30;;;;;;5076274;28;20043;-79
2022/04/27 12:12:41;;;;;;;6.00;2.88;;;21.10;90.50;;;;;;5081053;28;20096;-79
2022/04/27 12:15:12;;;;;;;2.75;2.38;;;21.30;90.70;;;;;;5063698;28;20013;-79
2022/04/27 12:17:42;;;;;;;3.80;2.55;;;21.30;90.50;;;;;;5064431;28;20070;-78
2022/04/27 12:20:11;;;;;;;2.85;2.42;;;21.50;90.70;;;;;;5070355;28;20036;-79
2022/04/27 12:22:50;;;;;;;3.30;2.60;;;21.60;90.40;;;;;;5071489;28;20029;-79
2022/04/27 12:25:15;;;;;;;2.40;2.20;;;21.80;91.00;;;;;;5059125;28;20054;-79
2022/04/27 12:27:42;;;;;;;3.03;2.08;;;21.70;90.90;;;;;;5067180;28;20035;-78
2022/04/27 12:30:08;;;;;;;3.22;2.53;;;21.60;90.20;;;;;;5058059;28;20025;-79
2022/04/27 12:32:34;;;;;;;3.88;2.20;;;21.60;91.00;;;;;;5059221;28;20022;-78
2022/04/27 12:37:53;;;;;;;2.20;2.00;;;21.80;91.00;;;;;;5076341;28;20035;-79
2022/04/27 12:40:19;;;;;;;2.40;2.20;;;21.90;90.70;;;;;;5071395;28;20020;-78
2022/04/27 12:43:05;;;;;;;2.92;2.47;;;22.20;90.80;;;;;;5068908;28;20531;-78
2022/04/27 12:45:33;;;;;;;3.70;2.28;;;22.20;90.30;;;;;;5070981;28;20072;-78
2022/04/27 12:47:59;;;;;;;4.40;2.30;;;22.00;90.40;;;;;;5075269;28;20067;-78
2022/04/27 12:50:25;;;;;;;3.28;1.90;;;22.00;89.70;;;;;;5086352;28;20085;-78
2022/04/27 12:52:51;;;;;;;2.38;2.20;;;22.00;90.30;;;;;;5069387;28;20017;-78
2022/04/27 12:55:18;;;;;;;2.90;2.25;;;21.70;91.50;;;;;;5069861;28;20028;-78
2022/04/27 12:57:45;;;;;;;3.00;2.40;;;21.50;91.00;;;;;;5071245;28;20070;-78
2022/04/27 13:00:11;;;;;;;2.10;2.00;;;21.60;93.10;;;;;;5073957;28;20035;-78
2022/04/27 13:02:37;;;;;;;2.60;2.40;;;21.60;91.20;;;;;;5072631;28;20025;-78
2022/04/27 13:05:04;;;;;;;2.90;2.40;;;21.50;92.00;;;;;;5076881;28;20278;-78
2022/04/27 13:07:29;;;;;;;2.35;2.00;;;21.40;92.60;;;;;;5078744;28;20150;-78
2022/04/27 13:12:39;;;;;;;2.30;2.10;;;21.10;90.70;;;;;;5065875;28;20030;-78
2022/04/27 13:15:07;;;;;;;2.60;2.38;;;21.10;91.40;;;;;;5054945;28;20016;-78